Relevés horaires Millau (France)


Relevés horaires à Millau - Jeudi 29 Juill. 2021
Heure UTC1 Température [°C] Vent [km/h] Hum. [%] Pres.4 [hPa] Visi. [Km] Nébu. [octa] Préc.5 [mm] Cond.
2m. Res. Ros. Dir.2 Vit. Moy. Raf.3
23:00 20.4 20.4 15.2 NE 1.9 -- 5.6 72 1012(0.0/3h) 20 -- -- --
22:00 20.5 20.5 15.3 N 3.7 -- 5.6 72 1012(0.4/3h) 20 -- -- --
21:00 21.1 21.1 15.2 NNE 3.7 -- 9.3 69 1011.9(0.6/3h) 20 -- -- --
20:00 21.3 21.3 15.6 N 5.6 -- 11.1 70 1011.7(0.4/3h) 20 -- -- --
19:00 24.5 24.5 15.1 OSO 3.7 -- 7.4 56 1010.4(-0.4/3h) 20 -- -- --
18:00 26.4 26.4 15.1 SSO 3.7 -- 9.3 50 1009.8(-0.7/3h) 20 -- -- --
17:00 27.9 27.9 15.9 O 1.9 -- 7.4 48 1009.5(-1.1/3h) 20 -- -- --
16:00 27.8 27.8 16.1 O 5.6 -- 11.1 49 1009.9(-1.2/3h) 20 -- -- --
15:00 27.6 27.6 14.9 SSO 1.9 -- 7.4 46 1010.3(-1.4/3h) 20 -- -- --
14:00 26.9 26.9 14.6 O 5.6 -- 9.3 47 1011(-1.2/3h) 20 -- -- --
13:00 26.3 26.3 13.8 OSO 3.7 -- 9.3 46 1011.7(-1.1/3h) 20 -- -- --
12:00 25.3 25.3 12.2 SO 3.7 -- 7.4 44 1012.5(-0.8/3h) 20 -- -- --
11:00 23.6 23.6 12.6 ONO 1.9 -- 5.6 50 1013.3(-0.8/3h) 20 -- -- --
10:00 22.1 22.1 9.9 NE 1.9 -- 7.4 46 1014.2(-0.5/3h) 20 -- -- --
09:00 19.8 19.8 13.3 N 3.7 -- 9.3 66 1014.8(-0.6/3h) 20 -- -- --
08:00 17.3 17.3 13.0 NNE 5.6 -- 13.0 76 1015.9(-0.4/3h) 20 -- -- --
07:00 14.9 14.9 12.0 NE 7.4 -- 14.8 83 1016.7(-0.4/3h) 20 -- -- --
06:00 14.5 14.4 12.2 NE 7.4 -- 11.1 86 1017(0.0/3h) 20 -- -- --
05:00 14.0 13.5 12.7 NNE 9.3 -- 11.1 92 1017.3(0.0/3h) 20 -- -- --
04:00 13.8 13.8 12.7 NE 5.6 -- 7.4 93 1017.5(-0.4/3h) 20 -- -- --
03:00 13.5 13.5 12.2 N 5.6 -- 14.8 92 1017.3(-0.5/3h) 20 -- -- --
02:00 14.0 13.3 12.9 N 11.1 -- 14.8 93 1017.3(-0.8/3h) 20 -- -- --
01:00 14.3 14.3 12.7 NNO 3.7 -- 7.4 90 1017.7(0.1/3h) 20 -- -- --
00:00 14.3 14.3 12.3 N 5.6 -- 9.3 88 1017.6(-0.3/3h) 20 -- -- --

1 Coordinated Universal Time. Actuellement il est 09:00 locale et 07:00 UTC.

2 Le vent souffle depuis la direction indiquée vers la direction oposée.

3 Les rafales max. sont disponible 40 min après l'heure du relevé.

4 Pour les stations d'altitude (plus de 600m) le géopotentiel du niveau le plus proche de la pression obligatoire est indiqué.

5 Les stations disposant d'un diffuseur peuvent indiquer "trace". Cela signifie que des précipitations ont touchés le sol mais que la quantité est inférieure à 0.1 mm.

Récapitulatif de la journée
Température [°C] Vent [km/h] Ensoleillement4 [h] Precipitations totale5 [mm] Pression [Hpa]
Min1 Max.2 Moy.3 Max. Min Max.
13.5 28.2 0 14.8 11 h 12 min 0 1009.5 1017.7

1 Température minimale relevée entre 18:00 UTC la veille et 18:00 UTC le jour donné.

2 Température maximale relevée entre 06:00 UTC le jour donné et 06:00 UTC le lendemain.

3 Vent moyen de la journée basé sur les relevés horaires.

4 Ensoleillement en heures relevé entre 06:00 UTC la veille et 06:00 UTC le jour donné.

5 Précipitations totales tombées entre 06:00 UTC la jour donné et 06:00 UTC le lendemain.

Graphiques horaires